sensor_id;sensor_type;location;lat;lon;timestamp;pressure;altitude;pressure_sealevel;temperature;humidity
58385;BME280;44185;47.844;8.966;2023-04-07T00:01:11;96226.25;;;4.57;100.00
58385;BME280;44185;47.844;8.966;2023-04-07T00:03:38;96209.78;;;4.55;100.00
58385;BME280;44185;47.844;8.966;2023-04-07T00:06:03;96210.16;;;4.49;100.00
58385;BME280;44185;47.844;8.966;2023-04-07T00:08:28;96210.44;;;4.59;100.00
58385;BME280;44185;47.844;8.966;2023-04-07T00:10:54;96211.84;;;4.64;100.00
58385;BME280;44185;47.844;8.966;2023-04-07T00:13:19;96206.88;;;4.60;100.00
58385;BME280;44185;47.844;8.966;2023-04-07T00:15:45;96212.88;;;4.62;100.00
58385;BME280;44185;47.844;8.966;2023-04-07T00:18:10;96203.50;;;4.58;100.00
58385;BME280;44185;47.844;8.966;2023-04-07T00:20:37;96193.13;;;4.56;100.00
58385;BME280;44185;47.844;8.966;2023-04-07T00:23:03;96182.66;;;4.56;100.00
58385;BME280;44185;47.844;8.966;2023-04-07T00:25:28;96180.03;;;4.56;100.00
58385;BME280;44185;47.844;8.966;2023-04-07T00:27:53;96186.78;;;4.45;100.00
58385;BME280;44185;47.844;8.966;2023-04-07T00:30:19;96176.69;;;4.39;100.00
58385;BME280;44185;47.844;8.966;2023-04-07T00:32:44;96178.56;;;4.37;100.00
58385;BME280;44185;47.844;8.966;2023-04-07T00:35:10;96168.94;;;4.38;100.00
58385;BME280;44185;47.844;8.966;2023-04-07T00:37:37;96157.19;;;4.43;100.00
58385;BME280;44185;47.844;8.966;2023-04-07T00:40:03;96159.75;;;4.45;100.00
58385;BME280;44185;47.844;8.966;2023-04-07T00:42:28;96144.84;;;4.45;100.00
58385;BME280;44185;47.844;8.966;2023-04-07T00:44:54;96147.75;;;4.41;100.00
58385;BME280;44185;47.844;8.966;2023-04-07T00:47:19;96137.25;;;4.41;100.00
58385;BME280;44185;47.844;8.966;2023-04-07T00:49:45;96135.34;;;4.30;100.00
58385;BME280;44185;47.844;8.966;2023-04-07T00:52:11;96125.06;;;4.27;100.00
58385;BME280;44185;47.844;8.966;2023-04-07T00:54:38;96123.16;;;4.29;100.00
58385;BME280;44185;47.844;8.966;2023-04-07T00:57:06;96127.25;;;4.33;100.00
58385;BME280;44185;47.844;8.966;2023-04-07T00:59:31;96115.88;;;4.34;100.00
58385;BME280;44185;47.844;8.966;2023-04-07T01:02:01;96113.06;;;4.37;100.00
58385;BME280;44185;47.844;8.966;2023-04-07T01:04:31;96106.13;;;4.36;100.00
58385;BME280;44185;47.844;8.966;2023-04-07T01:07:03;96104.25;;;4.38;100.00
58385;BME280;44185;47.844;8.966;2023-04-07T01:09:36;96107.41;;;4.43;100.00
58385;BME280;44185;47.844;8.966;2023-04-07T01:12:06;96108.25;;;4.44;100.00
58385;BME280;44185;47.844;8.966;2023-04-07T01:14:39;96109.94;;;4.45;100.00
58385;BME280;44185;47.844;8.966;2023-04-07T01:17:05;96101.59;;;4.53;100.00
58385;BME280;44185;47.844;8.966;2023-04-07T01:19:35;96101.78;;;4.50;100.00
58385;BME280;44185;47.844;8.966;2023-04-07T01:22:02;96102.16;;;4.58;100.00
58385;BME280;44185;47.844;8.966;2023-04-07T01:24:45;96094.97;;;4.47;100.00
58385;BME280;44185;47.844;8.966;2023-04-07T01:27:21;96089.19;;;4.42;100.00
58385;BME280;44185;47.844;8.966;2023-04-07T01:29:54;96090.94;;;4.41;100.00
58385;BME280;44185;47.844;8.966;2023-04-07T01:32:21;96091.13;;;4.38;100.00
58385;BME280;44185;47.844;8.966;2023-04-07T01:34:48;96088.53;;;4.38;100.00
58385;BME280;44185;47.844;8.966;2023-04-07T01:37:15;96083.19;;;4.40;100.00
58385;BME280;44185;47.844;8.966;2023-04-07T01:39:41;96085.81;;;4.40;100.00
58385;BME280;44185;47.844;8.966;2023-04-07T01:42:08;96088.75;;;4.35;100.00
58385;BME280;44185;47.844;8.966;2023-04-07T01:44:34;96078.53;;;4.30;100.00
58385;BME280;44185;47.844;8.966;2023-04-07T01:47:02;96078.44;;;4.32;100.00
58385;BME280;44185;47.844;8.966;2023-04-07T01:49:30;96080.53;;;4.27;100.00
58385;BME280;44185;47.844;8.966;2023-04-07T01:51:56;96077.44;;;4.20;100.00
58385;BME280;44185;47.844;8.966;2023-04-07T01:54:22;96081.00;;;4.19;100.00
58385;BME280;44185;47.844;8.966;2023-04-07T01:56:48;96070.25;;;4.09;100.00
58385;BME280;44185;47.844;8.966;2023-04-07T01:59:13;96077.34;;;4.07;100.00
58385;BME280;44185;47.844;8.966;2023-04-07T02:01:39;96080.72;;;4.09;100.00
58385;BME280;44185;47.844;8.966;2023-04-07T02:04:10;96082.31;;;4.11;100.00
58385;BME280;44185;47.844;8.966;2023-04-07T02:06:41;96071.81;;;4.11;100.00
58385;BME280;44185;47.844;8.966;2023-04-07T02:09:09;96068.47;;;4.09;100.00
58385;BME280;44185;47.844;8.966;2023-04-07T02:11:36;96067.63;;;4.09;100.00
58385;BME280;44185;47.844;8.966;2023-04-07T02:14:03;96066.88;;;4.07;100.00
58385;BME280;44185;47.844;8.966;2023-04-07T02:16:30;96070.53;;;4.04;100.00
58385;BME280;44185;47.844;8.966;2023-04-07T02:18:56;96068.22;;;3.99;100.00
58385;BME280;44185;47.844;8.966;2023-04-07T02:21:24;96071.09;;;4.09;100.00
58385;BME280;44185;47.844;8.966;2023-04-07T02:23:50;96071.00;;;4.11;100.00
58385;BME280;44185;47.844;8.966;2023-04-07T02:26:15;96066.69;;;4.10;100.00
58385;BME280;44185;47.844;8.966;2023-04-07T02:28:41;96066.31;;;4.16;100.00
58385;BME280;44185;47.844;8.966;2023-04-07T02:31:06;96059.09;;;4.20;100.00
58385;BME280;44185;47.844;8.966;2023-04-07T02:33:32;96063.59;;;4.18;100.00
58385;BME280;44185;47.844;8.966;2023-04-07T02:35:57;96060.53;;;4.11;100.00
58385;BME280;44185;47.844;8.966;2023-04-07T02:38:24;96059.38;;;4.15;100.00
58385;BME280;44185;47.844;8.966;2023-04-07T02:40:49;96055.38;;;4.09;100.00
58385;BME280;44185;47.844;8.966;2023-04-07T02:43:15;96057.56;;;4.03;100.00
58385;BME280;44185;47.844;8.966;2023-04-07T02:45:40;96050.63;;;4.02;100.00
58385;BME280;44185;47.844;8.966;2023-04-07T02:48:06;96043.41;;;4.05;100.00
58385;BME280;44185;47.844;8.966;2023-04-07T02:50:31;96039.50;;;3.98;100.00
58385;BME280;44185;47.844;8.966;2023-04-07T02:52:57;96041.66;;;3.91;100.00
58385;BME280;44185;47.844;8.966;2023-04-07T02:55:23;96032.88;;;3.92;100.00
58385;BME280;44185;47.844;8.966;2023-04-07T02:57:49;96035.75;;;4.02;100.00
58385;BME280;44185;47.844;8.966;2023-04-07T03:00:15;96032.88;;;3.92;100.00
58385;BME280;44185;47.844;8.966;2023-04-07T03:02:40;96033.44;;;3.83;100.00
58385;BME280;44185;47.844;8.966;2023-04-07T03:05:06;96034.84;;;3.88;100.00
58385;BME280;44185;47.844;8.966;2023-04-07T03:07:32;96029.59;;;3.88;100.00
58385;BME280;44185;47.844;8.966;2023-04-07T03:09:57;96026.69;;;3.93;100.00
58385;BME280;44185;47.844;8.966;2023-04-07T03:12:24;96028.50;;;3.93;100.00
58385;BME280;44185;47.844;8.966;2023-04-07T03:14:49;96027.94;;;3.87;100.00
58385;BME280;44185;47.844;8.966;2023-04-07T03:17:15;96019.41;;;3.84;100.00
58385;BME280;44185;47.844;8.966;2023-04-07T03:19:40;96010.66;;;3.85;100.00
58385;BME280;44185;47.844;8.966;2023-04-07T03:22:05;96010.66;;;3.85;100.00
58385;BME280;44185;47.844;8.966;2023-04-07T03:24:31;95998.09;;;3.90;100.00
58385;BME280;44185;47.844;8.966;2023-04-07T03:26:56;95997.16;;;3.91;100.00
58385;BME280;44185;47.844;8.966;2023-04-07T03:29:23;95992.88;;;3.90;100.00
58385;BME280;44185;47.844;8.966;2023-04-07T03:31:49;95984.47;;;3.85;100.00
58385;BME280;44185;47.844;8.966;2023-04-07T03:34:14;95980.53;;;3.77;100.00
58385;BME280;44185;47.844;8.966;2023-04-07T03:36:40;95978.09;;;3.74;100.00
58385;BME280;44185;47.844;8.966;2023-04-07T03:39:05;95981.69;;;3.59;100.00
58385;BME280;44185;47.844;8.966;2023-04-07T03:41:31;95973.84;;;3.44;100.00
58385;BME280;44185;47.844;8.966;2023-04-07T03:43:56;95975.72;;;3.27;100.00
58385;BME280;44185;47.844;8.966;2023-04-07T03:46:23;95987.13;;;3.26;100.00
58385;BME280;44185;47.844;8.966;2023-04-07T03:48:48;95984.06;;;3.34;100.00
58385;BME280;44185;47.844;8.966;2023-04-07T03:51:14;95982.06;;;3.38;100.00
58385;BME280;44185;47.844;8.966;2023-04-07T03:53:39;95978.25;;;3.43;100.00
58385;BME280;44185;47.844;8.966;2023-04-07T03:56:05;95972.94;;;3.45;100.00
58385;BME280;44185;47.844;8.966;2023-04-07T03:58:31;95967.59;;;3.47;100.00
58385;BME280;44185;47.844;8.966;2023-04-07T04:00:56;95976.19;;;3.49;100.00
58385;BME280;44185;47.844;8.966;2023-04-07T04:03:23;95970.22;;;3.47;100.00
58385;BME280;44185;47.844;8.966;2023-04-07T04:05:48;95970.31;;;3.45;100.00
58385;BME280;44185;47.844;8.966;2023-04-07T04:08:14;95970.03;;;3.50;100.00
58385;BME280;44185;47.844;8.966;2023-04-07T04:10:39;95967.41;;;3.50;100.00
58385;BME280;44185;47.844;8.966;2023-04-07T04:13:05;95960.97;;;3.55;100.00
58385;BME280;44185;47.844;8.966;2023-04-07T04:15:30;95959.56;;;3.50;100.00
58385;BME280;44185;47.844;8.966;2023-04-07T04:17:55;95957.41;;;3.42;100.00
58385;BME280;44185;47.844;8.966;2023-04-07T04:20:22;95969.00;;;3.38;100.00
58385;BME280;44185;47.844;8.966;2023-04-07T04:22:48;95967.97;;;3.40;100.00
58385;BME280;44185;47.844;8.966;2023-04-07T04:25:15;95966.28;;;3.39;100.00
58385;BME280;44185;47.844;8.966;2023-04-07T04:27:40;95970.50;;;3.42;100.00
58385;BME280;44185;47.844;8.966;2023-04-07T04:30:07;95966.75;;;3.46;100.00
58385;BME280;44185;47.844;8.966;2023-04-07T04:32:32;95966.09;;;3.42;100.00
58385;BME280;44185;47.844;8.966;2023-04-07T04:34:58;95968.50;;;3.45;100.00
58385;BME280;44185;47.844;8.966;2023-04-07T04:37:25;95966.94;;;3.43;100.00
58385;BME280;44185;47.844;8.966;2023-04-07T04:39:50;95976.84;;;3.38;100.00
58385;BME280;44185;47.844;8.966;2023-04-07T04:42:16;95970.03;;;3.35;100.00
58385;BME280;44185;47.844;8.966;2023-04-07T04:44:41;95973.84;;;3.29;100.00
58385;BME280;44185;47.844;8.966;2023-04-07T04:47:06;95963.41;;;3.15;100.00
58385;BME280;44185;47.844;8.966;2023-04-07T04:49:32;95970.00;;;3.06;100.00
58385;BME280;44185;47.844;8.966;2023-04-07T04:51:57;95971.78;;;3.05;100.00
58385;BME280;44185;47.844;8.966;2023-04-07T04:54:25;95969.72;;;2.96;100.00
58385;BME280;44185;47.844;8.966;2023-04-07T04:56:50;95966.66;;;2.89;100.00
58385;BME280;44185;47.844;8.966;2023-04-07T04:59:16;95962.97;;;2.77;100.00
58385;BME280;44185;47.844;8.966;2023-04-07T05:01:41;95963.34;;;2.71;100.00
58385;BME280;44185;47.844;8.966;2023-04-07T05:04:06;95966.78;;;2.71;100.00
58385;BME280;44185;47.844;8.966;2023-04-07T05:06:32;95964.66;;;2.78;100.00
58385;BME280;44185;47.844;8.966;2023-04-07T05:08:57;95966.81;;;2.86;100.00
58385;BME280;44185;47.844;8.966;2023-04-07T05:11:25;95962.63;;;2.83;100.00
58385;BME280;44185;47.844;8.966;2023-04-07T05:13:50;95957.22;;;2.86;100.00
58385;BME280;44185;47.844;8.966;2023-04-07T05:16:16;95956.44;;;2.84;100.00
58385;BME280;44185;47.844;8.966;2023-04-07T05:18:41;95949.56;;;2.83;100.00
58385;BME280;44185;47.844;8.966;2023-04-07T05:21:07;95956.84;;;2.93;100.00
58385;BME280;44185;47.844;8.966;2023-04-07T05:23:32;95955.19;;;2.92;100.00
58385;BME280;44185;47.844;8.966;2023-04-07T05:25:58;95951.44;;;2.96;100.00
58385;BME280;44185;47.844;8.966;2023-04-07T05:28:25;95939.84;;;3.00;100.00
58385;BME280;44185;47.844;8.966;2023-04-07T05:30:50;95945.63;;;3.05;100.00
58385;BME280;44185;47.844;8.966;2023-04-07T05:33:16;95942.09;;;3.06;100.00
58385;BME280;44185;47.844;8.966;2023-04-07T05:35:43;95951.16;;;3.00;100.00
58385;BME280;44185;47.844;8.966;2023-04-07T05:38:08;95938.00;;;3.02;100.00
58385;BME280;44185;47.844;8.966;2023-04-07T05:40:34;95935.28;;;3.04;100.00
58385;BME280;44185;47.844;8.966;2023-04-07T05:42:59;95938.75;;;3.04;100.00
58385;BME280;44185;47.844;8.966;2023-04-07T05:45:26;95939.75;;;3.16;100.00
58385;BME280;44185;47.844;8.966;2023-04-07T05:47:51;95939.84;;;3.29;100.00
58385;BME280;44185;47.844;8.966;2023-04-07T05:50:17;95938.06;;;3.44;100.00
58385;BME280;44185;47.844;8.966;2023-04-07T05:52:42;95939.19;;;3.55;100.00
58385;BME280;44185;47.844;8.966;2023-04-07T05:55:08;95931.28;;;3.70;100.00
58385;BME280;44185;47.844;8.966;2023-04-07T05:57:34;95925.69;;;3.76;100.00
58385;BME280;44185;47.844;8.966;2023-04-07T06:00:00;95927.16;;;3.80;100.00
58385;BME280;44185;47.844;8.966;2023-04-07T06:02:27;95925.25;;;3.82;100.00
58385;BME280;44185;47.844;8.966;2023-04-07T06:04:56;95926.59;;;3.75;100.00
58385;BME280;44185;47.844;8.966;2023-04-07T06:07:21;95934.63;;;3.72;100.00
58385;BME280;44185;47.844;8.966;2023-04-07T06:09:46;95936.75;;;3.94;100.00
58385;BME280;44185;47.844;8.966;2023-04-07T06:12:12;95933.88;;;4.12;100.00
58385;BME280;44185;47.844;8.966;2023-04-07T06:14:38;95946.91;;;4.27;100.00
58385;BME280;44185;47.844;8.966;2023-04-07T06:17:03;95956.66;;;5.05;100.00
58385;BME280;44185;47.844;8.966;2023-04-07T06:19:30;95952.47;;;5.41;100.00
58385;BME280;44185;47.844;8.966;2023-04-07T06:21:56;95953.50;;;4.99;100.00
58385;BME280;44185;47.844;8.966;2023-04-07T06:24:21;95957.91;;;4.86;100.00
58385;BME280;44185;47.844;8.966;2023-04-07T06:26:47;95955.22;;;4.87;100.00
58385;BME280;44185;47.844;8.966;2023-04-07T06:29:12;95951.63;;;4.88;100.00
58385;BME280;44185;47.844;8.966;2023-04-07T06:31:38;95957.19;;;4.84;100.00
58385;BME280;44185;47.844;8.966;2023-04-07T06:34:04;95961.59;;;4.96;100.00
58385;BME280;44185;47.844;8.966;2023-04-07T06:36:31;95962.44;;;5.10;100.00
58385;BME280;44185;47.844;8.966;2023-04-07T06:38:56;95966.88;;;5.22;100.00
58385;BME280;44185;47.844;8.966;2023-04-07T06:41:22;95969.78;;;5.31;100.00
58385;BME280;44185;47.844;8.966;2023-04-07T06:43:48;95969.34;;;5.37;100.00
58385;BME280;44185;47.844;8.966;2023-04-07T06:46:14;95967.69;;;5.49;100.00
58385;BME280;44185;47.844;8.966;2023-04-07T06:48:39;95973.28;;;5.69;100.00
58385;BME280;44185;47.844;8.966;2023-04-07T06:51:05;95960.91;;;5.71;100.00
58385;BME280;44185;47.844;8.966;2023-04-07T06:53:31;95966.94;;;5.85;100.00
58385;BME280;44185;47.844;8.966;2023-04-07T06:56:04;95959.75;;;6.00;100.00
58385;BME280;44185;47.844;8.966;2023-04-07T06:58:29;95956.06;;;6.16;100.00
58385;BME280;44185;47.844;8.966;2023-04-07T07:00:55;95959.28;;;6.19;99.02
58385;BME280;44185;47.844;8.966;2023-04-07T07:03:20;95956.25;;;6.37;99.25
58385;BME280;44185;47.844;8.966;2023-04-07T07:05:46;95955.19;;;6.64;97.30
58385;BME280;44185;47.844;8.966;2023-04-07T07:08:11;95954.72;;;6.71;95.76
58385;BME280;44185;47.844;8.966;2023-04-07T07:10:38;95948.25;;;6.63;94.79
58385;BME280;44185;47.844;8.966;2023-04-07T07:13:03;95944.50;;;6.54;95.61
58385;BME280;44185;47.844;8.966;2023-04-07T07:15:29;95951.75;;;6.39;94.22
58385;BME280;44185;47.844;8.966;2023-04-07T07:17:54;95946.81;;;6.34;94.58
58385;BME280;44185;47.844;8.966;2023-04-07T07:20:20;95956.75;;;6.42;91.50
58385;BME280;44185;47.844;8.966;2023-04-07T07:22:45;95956.53;;;6.45;92.27
58385;BME280;44185;47.844;8.966;2023-04-07T07:25:10;95950.34;;;6.47;90.73
58385;BME280;44185;47.844;8.966;2023-04-07T07:27:37;95950.00;;;6.51;92.08
58385;BME280;44185;47.844;8.966;2023-04-07T07:30:04;95957.38;;;6.46;90.59
58385;BME280;44185;47.844;8.966;2023-04-07T07:32:29;95961.13;;;6.55;93.91
58385;BME280;44185;47.844;8.966;2023-04-07T07:34:55;95955.66;;;6.58;93.65
58385;BME280;44185;47.844;8.966;2023-04-07T07:37:20;95954.00;;;6.69;93.18
58385;BME280;44185;47.844;8.966;2023-04-07T07:39:45;95959.63;;;6.75;92.48
58385;BME280;44185;47.844;8.966;2023-04-07T07:42:11;95958.81;;;6.86;91.44
58385;BME280;44185;47.844;8.966;2023-04-07T07:44:38;95957.88;;;6.99;90.93
58385;BME280;44185;47.844;8.966;2023-04-07T07:47:03;95967.13;;;7.28;90.29
58385;BME280;44185;47.844;8.966;2023-04-07T07:49:28;95950.50;;;7.62;89.00
58385;BME280;44185;47.844;8.966;2023-04-07T07:51:54;95956.78;;;7.94;88.59
58385;BME280;44185;47.844;8.966;2023-04-07T07:54:19;95956.69;;;8.07;86.43
58385;BME280;44185;47.844;8.966;2023-04-07T07:56:45;95958.09;;;8.11;82.55
58385;BME280;44185;47.844;8.966;2023-04-07T07:59:10;95948.41;;;8.00;79.99
58385;BME280;44185;47.844;8.966;2023-04-07T08:01:37;95952.28;;;7.84;80.50
58385;BME280;44185;47.844;8.966;2023-04-07T08:04:02;95942.50;;;7.75;80.08
58385;BME280;44185;47.844;8.966;2023-04-07T08:06:28;95951.94;;;7.54;81.61
58385;BME280;44185;47.844;8.966;2023-04-07T08:08:53;95948.69;;;7.62;82.36
58385;BME280;44185;47.844;8.966;2023-04-07T08:11:19;95957.09;;;7.56;82.59
58385;BME280;44185;47.844;8.966;2023-04-07T08:13:44;95957.81;;;7.47;82.43
58385;BME280;44185;47.844;8.966;2023-04-07T08:16:10;95952.06;;;7.53;84.18
58385;BME280;44185;47.844;8.966;2023-04-07T08:18:37;95959.59;;;7.57;83.20
58385;BME280;44185;47.844;8.966;2023-04-07T08:21:03;95955.53;;;7.65;82.64
58385;BME280;44185;47.844;8.966;2023-04-07T08:23:28;95961.25;;;7.70;81.39
58385;BME280;44185;47.844;8.966;2023-04-07T08:25:54;95959.84;;;7.66;79.99
58385;BME280;44185;47.844;8.966;2023-04-07T08:28:19;95958.63;;;7.82;82.89
58385;BME280;44185;47.844;8.966;2023-04-07T08:30:44;95958.47;;;7.95;84.04
58385;BME280;44185;47.844;8.966;2023-04-07T08:33:10;95962.19;;;7.92;78.78
58385;BME280;44185;47.844;8.966;2023-04-07T08:35:37;95951.19;;;7.98;80.44
58385;BME280;44185;47.844;8.966;2023-04-07T08:38:02;95957.63;;;7.94;78.27
58385;BME280;44185;47.844;8.966;2023-04-07T08:40:28;95960.19;;;7.84;78.40
58385;BME280;44185;47.844;8.966;2023-04-07T08:42:54;95962.34;;;7.90;78.15
58385;BME280;44185;47.844;8.966;2023-04-07T08:45:21;95954.16;;;8.05;76.07
58385;BME280;44185;47.844;8.966;2023-04-07T08:47:48;95956.19;;;8.01;77.02
58385;BME280;44185;47.844;8.966;2023-04-07T08:50:16;95958.69;;;8.15;78.24
58385;BME280;44185;47.844;8.966;2023-04-07T08:52:45;95950.97;;;8.23;80.43
58385;BME280;44185;47.844;8.966;2023-04-07T08:55:14;95958.22;;;8.09;78.32
58385;BME280;44185;47.844;8.966;2023-04-07T08:57:40;95958.25;;;8.31;77.23
58385;BME280;44185;47.844;8.966;2023-04-07T09:00:07;95961.03;;;8.29;75.38
58385;BME280;44185;47.844;8.966;2023-04-07T09:02:33;95955.44;;;8.22;77.75
58385;BME280;44185;47.844;8.966;2023-04-07T09:04:59;95952.19;;;8.30;78.93
58385;BME280;44185;47.844;8.966;2023-04-07T09:07:25;95950.56;;;8.39;77.44
58385;BME280;44185;47.844;8.966;2023-04-07T09:09:52;95960.41;;;8.37;76.38
58385;BME280;44185;47.844;8.966;2023-04-07T09:12:17;95952.56;;;8.59;76.31
58385;BME280;44185;47.844;8.966;2023-04-07T09:14:43;95954.31;;;8.70;75.93
58385;BME280;44185;47.844;8.966;2023-04-07T09:17:08;95949.09;;;8.79;75.79
58385;BME280;44185;47.844;8.966;2023-04-07T09:19:34;95953.88;;;8.86;76.18
58385;BME280;44185;47.844;8.966;2023-04-07T09:21:59;95952.00;;;8.98;75.81
58385;BME280;44185;47.844;8.966;2023-04-07T09:24:26;95955.22;;;8.80;72.87
58385;BME280;44185;47.844;8.966;2023-04-07T09:29:46;95950.78;;;9.02;74.02
58385;BME280;44185;47.844;8.966;2023-04-07T09:32:12;95961.44;;;9.22;74.24
58385;BME280;44185;47.844;8.966;2023-04-07T09:34:46;95953.84;;;9.29;75.59
58385;BME280;44185;47.844;8.966;2023-04-07T09:37:21;95952.69;;;9.21;71.34
58385;BME280;44185;47.844;8.966;2023-04-07T09:39:51;95956.09;;;9.33;72.65
58385;BME280;44185;47.844;8.966;2023-04-07T09:42:16;95958.94;;;9.20;70.22
58385;BME280;44185;47.844;8.966;2023-04-07T09:44:44;95961.13;;;9.15;72.40
58385;BME280;44185;47.844;8.966;2023-04-07T09:47:10;95958.97;;;8.99;73.63
58385;BME280;44185;47.844;8.966;2023-04-07T09:49:49;95949.59;;;9.16;74.09
58385;BME280;44185;47.844;8.966;2023-04-07T09:52:14;95955.69;;;9.38;73.36
58385;BME280;44185;47.844;8.966;2023-04-07T09:54:40;95953.03;;;9.38;72.71
58385;BME280;44185;47.844;8.966;2023-04-07T09:57:08;95959.69;;;9.32;71.11
58385;BME280;44185;47.844;8.966;2023-04-07T09:59:35;95957.84;;;9.23;68.30
58385;BME280;44185;47.844;8.966;2023-04-07T10:02:03;95960.09;;;9.28;71.24
58385;BME280;44185;47.844;8.966;2023-04-07T10:04:28;95956.94;;;9.34;70.62
58385;BME280;44185;47.844;8.966;2023-04-07T10:06:55;95957.47;;;9.38;68.38
58385;BME280;44185;47.844;8.966;2023-04-07T10:09:22;95956.84;;;9.55;68.74
58385;BME280;44185;47.844;8.966;2023-04-07T10:11:49;95954.44;;;9.42;68.22
58385;BME280;44185;47.844;8.966;2023-04-07T10:14:15;95955.59;;;9.50;68.71
58385;BME280;44185;47.844;8.966;2023-04-07T10:16:43;95959.03;;;9.40;67.59
58385;BME280;44185;47.844;8.966;2023-04-07T10:19:10;95965.94;;;9.63;69.21
58385;BME280;44185;47.844;8.966;2023-04-07T10:21:38;95970.28;;;9.42;67.03
58385;BME280;44185;47.844;8.966;2023-04-07T10:24:10;95964.34;;;9.50;69.60
58385;BME280;44185;47.844;8.966;2023-04-07T10:26:39;95957.38;;;9.39;69.35
58385;BME280;44185;47.844;8.966;2023-04-07T10:29:09;95959.97;;;9.61;70.18
58385;BME280;44185;47.844;8.966;2023-04-07T10:31:37;95962.94;;;9.46;66.21
58385;BME280;44185;47.844;8.966;2023-04-07T10:34:04;95967.38;;;9.45;68.01
58385;BME280;44185;47.844;8.966;2023-04-07T10:36:31;95970.88;;;9.46;66.30
58385;BME280;44185;47.844;8.966;2023-04-07T10:39:18;95968.84;;;9.28;66.24
58385;BME280;44185;47.844;8.966;2023-04-07T10:41:44;95971.38;;;9.40;67.43
58385;BME280;44185;47.844;8.966;2023-04-07T10:44:45;95974.81;;;9.30;68.20
58385;BME280;44185;47.844;8.966;2023-04-07T10:47:14;95975.03;;;9.17;67.50
58385;BME280;44185;47.844;8.966;2023-04-07T10:50:19;95971.00;;;9.44;69.05
58385;BME280;44185;47.844;8.966;2023-04-07T10:52:46;95974.81;;;9.62;65.79
58385;BME280;44185;47.844;8.966;2023-04-07T10:55:29;95975.81;;;9.61;65.63
58385;BME280;44185;47.844;8.966;2023-04-07T10:58:23;95975.44;;;9.75;65.30
58385;BME280;44185;47.844;8.966;2023-04-07T11:01:17;95976.03;;;9.89;66.35
58385;BME280;44185;47.844;8.966;2023-04-07T11:03:56;95973.47;;;10.19;65.82
58385;BME280;44185;47.844;8.966;2023-04-07T11:06:24;95979.63;;;10.29;65.37
58385;BME280;44185;47.844;8.966;2023-04-07T11:08:52;95975.31;;;10.48;65.15
58385;BME280;44185;47.844;8.966;2023-04-07T11:11:33;95978.63;;;10.30;66.20
58385;BME280;44185;47.844;8.966;2023-04-07T11:13:59;95975.28;;;10.08;66.57
58385;BME280;44185;47.844;8.966;2023-04-07T11:16:35;95972.75;;;10.07;67.13
58385;BME280;44185;47.844;8.966;2023-04-07T11:19:00;95974.31;;;10.39;67.76
58385;BME280;44185;47.844;8.966;2023-04-07T11:21:26;95979.34;;;10.42;67.77
58385;BME280;44185;47.844;8.966;2023-04-07T11:23:53;95975.78;;;10.63;67.66
58385;BME280;44185;47.844;8.966;2023-04-07T11:26:18;95975.47;;;10.76;67.06
58385;BME280;44185;47.844;8.966;2023-04-07T11:28:44;95971.56;;;10.81;65.96
58385;BME280;44185;47.844;8.966;2023-04-07T11:31:10;95970.03;;;10.98;66.18
58385;BME280;44185;47.844;8.966;2023-04-07T11:33:36;95964.75;;;10.78;65.53
58385;BME280;44185;47.844;8.966;2023-04-07T11:36:02;95971.00;;;10.47;63.90
58385;BME280;44185;47.844;8.966;2023-04-07T11:38:28;95971.44;;;10.82;64.56
58385;BME280;44185;47.844;8.966;2023-04-07T11:41:10;95971.56;;;11.00;65.04
58385;BME280;44185;47.844;8.966;2023-04-07T11:43:35;95967.75;;;11.23;63.96
58385;BME280;44185;47.844;8.966;2023-04-07T11:46:08;95978.88;;;11.37;63.70
58385;BME280;44185;47.844;8.966;2023-04-07T11:48:35;95977.78;;;11.29;63.16
58385;BME280;44185;47.844;8.966;2023-04-07T11:51:04;95969.97;;;11.18;62.35
58385;BME280;44185;47.844;8.966;2023-04-07T11:53:31;95979.56;;;11.39;63.18
58385;BME280;44185;47.844;8.966;2023-04-07T11:56:06;95979.78;;;11.17;63.92
58385;BME280;44185;47.844;8.966;2023-04-07T11:58:32;95978.09;;;11.06;62.69
58385;BME280;44185;47.844;8.966;2023-04-07T12:00:58;95974.63;;;11.06;64.59
58385;BME280;44185;47.844;8.966;2023-04-07T12:03:24;95978.38;;;11.13;64.39
58385;BME280;44185;47.844;8.966;2023-04-07T12:05:50;95981.16;;;11.01;64.42
58385;BME280;44185;47.844;8.966;2023-04-07T12:08:15;95980.44;;;11.19;65.49
58385;BME280;44185;47.844;8.966;2023-04-07T12:10:41;95974.63;;;11.06;64.02
58385;BME280;44185;47.844;8.966;2023-04-07T12:13:08;95979.63;;;11.09;63.97
58385;BME280;44185;47.844;8.966;2023-04-07T12:15:34;95977.84;;;10.79;62.72
58385;BME280;44185;47.844;8.966;2023-04-07T12:18:13;95985.50;;;10.93;65.20
58385;BME280;44185;47.844;8.966;2023-04-07T12:20:39;95987.59;;;10.79;64.73
58385;BME280;44185;47.844;8.966;2023-04-07T12:23:04;95980.50;;;10.79;63.17
58385;BME280;44185;47.844;8.966;2023-04-07T12:25:30;95984.66;;;11.12;64.49
58385;BME280;44185;47.844;8.966;2023-04-07T12:27:55;95983.63;;;11.23;63.37
58385;BME280;44185;47.844;8.966;2023-04-07T12:30:22;95987.03;;;10.75;64.13
58385;BME280;44185;47.844;8.966;2023-04-07T12:32:47;95984.41;;;10.65;65.76
58385;BME280;44185;47.844;8.966;2023-04-07T12:35:13;95992.19;;;10.57;65.81
58385;BME280;44185;47.844;8.966;2023-04-07T12:37:38;95990.66;;;10.64;64.08
58385;BME280;44185;47.844;8.966;2023-04-07T12:40:05;95990.09;;;10.71;65.65
58385;BME280;44185;47.844;8.966;2023-04-07T12:42:31;95984.81;;;10.71;64.26
58385;BME280;44185;47.844;8.966;2023-04-07T12:44:56;95989.56;;;10.77;63.56
58385;BME280;44185;47.844;8.966;2023-04-07T12:47:23;95983.97;;;10.90;65.17
58385;BME280;44185;47.844;8.966;2023-04-07T12:49:48;95982.13;;;11.10;64.89
58385;BME280;44185;47.844;8.966;2023-04-07T12:52:14;95982.69;;;11.04;62.59
58385;BME280;44185;47.844;8.966;2023-04-07T12:54:39;95985.22;;;11.06;64.34
58385;BME280;44185;47.844;8.966;2023-04-07T12:57:04;95980.22;;;10.73;64.82
58385;BME280;44185;47.844;8.966;2023-04-07T12:59:30;95982.72;;;10.74;67.07
58385;BME280;44185;47.844;8.966;2023-04-07T13:01:55;95987.44;;;11.00;64.95
58385;BME280;44185;47.844;8.966;2023-04-07T13:04:22;95981.38;;;11.28;65.16